createdAt,value
2024-03-13T00:00:17.265Z,6.54
2024-03-13T00:03:08.398Z,6.53
2024-03-13T00:05:36.828Z,6.52
2024-03-13T00:08:08.768Z,6.54
2024-03-13T00:10:37.434Z,6.54
2024-03-13T00:13:05.715Z,6.53
2024-03-13T00:15:34.533Z,6.52
2024-03-13T00:18:05.144Z,6.52
2024-03-13T00:20:33.111Z,6.53
2024-03-13T00:23:02.659Z,6.53
2024-03-13T00:25:30.865Z,6.53
2024-03-13T00:27:59.069Z,6.53
2024-03-13T00:30:26.939Z,6.52
2024-03-13T00:32:55.589Z,6.50
2024-03-13T00:35:23.740Z,6.48
2024-03-13T00:37:51.498Z,6.46
2024-03-13T00:40:19.575Z,6.45
2024-03-13T00:42:47.497Z,6.44
2024-03-13T00:45:15.469Z,6.44
2024-03-13T00:47:44.410Z,6.45
2024-03-13T00:50:16.198Z,6.47
2024-03-13T00:52:44.518Z,6.47
2024-03-13T00:55:12.687Z,6.45
2024-03-13T00:57:43.552Z,6.45
2024-03-13T01:00:12.623Z,6.43
2024-03-13T01:02:42.080Z,6.42
2024-03-13T01:05:11.101Z,6.41
2024-03-13T01:07:38.990Z,6.40
2024-03-13T01:10:07.473Z,6.39
2024-03-13T01:12:35.998Z,6.39
2024-03-13T01:15:05.932Z,6.39
2024-03-13T01:17:33.897Z,6.40
2024-03-13T01:20:02.192Z,6.41
2024-03-13T01:22:30.117Z,6.39
2024-03-13T01:24:59.390Z,6.39
2024-03-13T01:27:29.851Z,6.39
2024-03-13T01:29:57.696Z,6.39
2024-03-13T01:32:26.486Z,6.37
2024-03-13T01:34:54.548Z,6.35
2024-03-13T01:37:41.075Z,6.34
2024-03-13T01:40:10.594Z,6.31
2024-03-13T01:42:57.289Z,6.30
2024-03-13T01:46:06.234Z,6.29
2024-03-13T01:48:57.840Z,6.28
2024-03-13T01:51:44.329Z,6.25
2024-03-13T01:54:31.337Z,6.27
2024-03-13T01:57:13.860Z,6.25
2024-03-13T02:00:11.661Z,6.25
2024-03-13T02:02:42.979Z,6.25
2024-03-13T02:05:10.957Z,6.25
2024-03-13T02:07:38.673Z,6.26
2024-03-13T02:10:07.159Z,6.26
2024-03-13T02:12:34.957Z,6.27
2024-03-13T02:15:03.037Z,6.29
2024-03-13T02:17:37.052Z,6.30
2024-03-13T02:20:05.978Z,6.31
2024-03-13T02:22:35.384Z,6.31
2024-03-13T02:25:03.210Z,6.30
2024-03-13T02:27:31.190Z,6.30
2024-03-13T02:29:59.166Z,6.30
2024-03-13T02:32:26.969Z,6.31
2024-03-13T02:34:56.221Z,6.30
2024-03-13T02:37:24.779Z,6.30
2024-03-13T02:39:52.905Z,6.29
2024-03-13T02:42:20.669Z,6.28
2024-03-13T02:44:48.424Z,6.26
2024-03-13T02:47:19.194Z,6.26
2024-03-13T02:49:47.772Z,6.27
2024-03-13T02:52:15.498Z,6.27
2024-03-13T02:54:43.173Z,6.26
2024-03-13T02:57:10.973Z,6.24
2024-03-13T02:59:39.675Z,6.24
2024-03-13T03:02:07.827Z,6.24
2024-03-13T03:04:35.725Z,6.23
2024-03-13T03:07:03.534Z,6.23
2024-03-13T03:09:31.470Z,6.23
2024-03-13T03:11:59.132Z,6.24
2024-03-13T03:14:27.183Z,6.24
2024-03-13T03:16:56.189Z,6.24
2024-03-13T03:19:25.014Z,6.25
2024-03-13T03:21:54.936Z,6.24
2024-03-13T03:24:22.886Z,6.21
2024-03-13T03:26:51.566Z,6.20
2024-03-13T03:29:19.329Z,6.20
2024-03-13T03:31:47.123Z,6.21
2024-03-13T03:34:15.015Z,6.20
2024-03-13T03:36:43.038Z,6.21
2024-03-13T03:39:16.819Z,6.20
2024-03-13T03:41:47.568Z,6.19
2024-03-13T03:44:15.312Z,6.17
2024-03-13T03:46:42.992Z,6.16
2024-03-13T03:49:11.308Z,6.17
2024-03-13T03:51:39.001Z,6.16
2024-03-13T03:54:06.793Z,6.13
2024-03-13T03:56:40.621Z,6.12
2024-03-13T03:59:09.642Z,6.12
2024-03-13T04:01:37.529Z,6.13
2024-03-13T04:04:05.523Z,6.13
2024-03-13T04:06:33.372Z,6.13
2024-03-13T04:09:01.938Z,6.13
2024-03-13T04:11:30.388Z,6.12
2024-03-13T04:13:58.065Z,6.11
2024-03-13T04:16:25.794Z,6.09
2024-03-13T04:18:53.501Z,6.10
2024-03-13T04:21:21.265Z,6.11
2024-03-13T04:23:50.754Z,6.11
2024-03-13T04:26:18.581Z,6.12
2024-03-13T04:28:46.410Z,6.11
2024-03-13T04:31:14.971Z,6.08
2024-03-13T04:33:42.893Z,6.08
2024-03-13T04:36:10.573Z,6.07
2024-03-13T04:38:38.314Z,6.07
2024-03-13T04:41:05.994Z,6.06
2024-03-13T04:43:33.944Z,6.03
2024-03-13T04:46:01.758Z,6.03
2024-03-13T04:48:29.631Z,6.02
2024-03-13T04:50:57.272Z,6.02
2024-03-13T04:53:25.030Z,6.02
2024-03-13T04:55:52.910Z,6.01
2024-03-13T04:58:20.611Z,6.01
2024-03-13T05:00:48.522Z,5.99
2024-03-13T05:03:16.566Z,5.98
2024-03-13T05:05:46.852Z,5.97
2024-03-13T05:08:18.099Z,5.97
2024-03-13T05:10:45.900Z,5.96
2024-03-13T05:13:14.629Z,5.94
2024-03-13T05:15:43.102Z,5.94
2024-03-13T05:18:10.861Z,5.95
2024-03-13T05:20:39.102Z,5.97
2024-03-13T05:23:07.864Z,5.97
2024-03-13T05:25:35.992Z,5.96
2024-03-13T05:28:04.640Z,5.97
2024-03-13T05:30:32.544Z,5.97
2024-03-13T05:33:00.455Z,5.96
2024-03-13T05:35:28.421Z,5.97
2024-03-13T05:37:56.306Z,5.99
2024-03-13T05:40:24.204Z,6.00
2024-03-13T05:42:52.057Z,6.00
2024-03-13T05:45:20.362Z,6.01
2024-03-13T05:47:49.919Z,6.00
2024-03-13T05:50:19.191Z,6.01
2024-03-13T05:52:47.721Z,6.01
2024-03-13T05:55:17.037Z,6.01
2024-03-13T05:57:46.098Z,6.01
2024-03-13T06:00:14.768Z,6.02
2024-03-13T06:02:43.076Z,6.02
2024-03-13T06:05:11.181Z,6.03
2024-03-13T06:07:39.878Z,6.02
2024-03-13T06:10:11.894Z,6.02
2024-03-13T06:12:40.219Z,6.02
2024-03-13T06:15:08.503Z,6.01
2024-03-13T06:17:36.617Z,6.01
2024-03-13T06:20:07.959Z,6.02
2024-03-13T06:22:37.113Z,6.04
2024-03-13T06:25:08.103Z,6.07
2024-03-13T06:27:37.001Z,6.10
2024-03-13T06:30:06.407Z,6.12
2024-03-13T06:32:34.243Z,6.14
2024-03-13T06:35:05.126Z,6.13
2024-03-13T06:37:34.542Z,6.12
2024-03-13T06:40:02.497Z,6.11
2024-03-13T06:42:32.246Z,6.10
2024-03-13T06:45:00.034Z,6.11
2024-03-13T06:47:27.882Z,6.11
2024-03-13T06:49:55.619Z,6.11
2024-03-13T06:52:25.136Z,6.12
2024-03-13T06:54:52.886Z,6.12
2024-03-13T06:57:20.653Z,6.15
2024-03-13T06:59:48.436Z,6.17
2024-03-13T07:02:18.458Z,6.17
2024-03-13T07:04:46.347Z,6.19
2024-03-13T07:07:14.510Z,6.20
2024-03-13T07:09:43.433Z,6.23
2024-03-13T07:12:12.709Z,6.26
2024-03-13T07:14:40.466Z,6.31
2024-03-13T07:17:08.626Z,6.38
2024-03-13T07:19:37.060Z,6.42
2024-03-13T07:22:05.030Z,6.45
2024-03-13T07:24:33.257Z,6.50
2024-03-13T07:27:01.144Z,6.55
2024-03-13T07:29:28.820Z,6.57
2024-03-13T07:31:57.438Z,6.58
2024-03-13T07:34:25.539Z,6.57
2024-03-13T07:36:55.918Z,6.57
2024-03-13T07:39:27.091Z,6.60
2024-03-13T07:41:54.878Z,6.61
2024-03-13T07:44:22.610Z,6.63
2024-03-13T07:46:50.762Z,6.68
2024-03-13T07:49:19.922Z,6.73
2024-03-13T07:51:47.819Z,6.78
2024-03-13T07:54:15.533Z,6.80
2024-03-13T07:56:43.293Z,6.83
2024-03-13T07:59:11.764Z,6.85
2024-03-13T08:01:42.621Z,6.85
2024-03-13T08:04:12.843Z,6.85
2024-03-13T09:07:42.294Z,7.69
2024-03-13T09:10:13.711Z,7.79
2024-03-13T09:12:41.681Z,7.88
2024-03-13T09:15:11.429Z,7.99
2024-03-13T09:17:39.490Z,8.11
2024-03-13T09:20:08.601Z,8.20
2024-03-13T09:22:36.408Z,8.26
2024-03-13T09:25:04.898Z,8.29
2024-03-13T09:27:32.699Z,8.31
2024-03-13T09:30:03.278Z,8.35
2024-03-13T09:32:31.293Z,8.38
2024-03-13T09:34:59.902Z,8.42
2024-03-13T09:37:27.868Z,8.47
2024-03-13T09:39:56.314Z,8.54
2024-03-13T09:42:25.061Z,8.57
2024-03-13T09:44:53.877Z,8.62
2024-03-13T09:47:23.626Z,8.68
2024-03-13T09:49:52.349Z,8.77
2024-03-13T09:52:20.324Z,8.88
2024-03-13T09:54:48.121Z,8.94
2024-03-13T09:57:16.605Z,8.95
2024-03-13T09:59:44.523Z,8.97
2024-03-13T10:02:22.490Z,9.07
2024-03-13T10:04:51.864Z,9.15
2024-03-13T10:07:23.035Z,9.24
2024-03-13T10:09:50.904Z,9.28
2024-03-13T10:12:21.797Z,9.35
2024-03-13T10:14:51.604Z,9.39
2024-03-13T10:17:20.947Z,9.46
2024-03-13T10:19:50.713Z,9.55
2024-03-13T10:22:19.935Z,9.53
2024-03-13T10:24:53.233Z,9.56
2024-03-13T10:27:23.564Z,9.58
2024-03-13T10:29:54.783Z,9.57
2024-03-13T10:32:23.711Z,9.57
2024-03-13T10:34:51.674Z,9.57
2024-03-13T10:37:20.043Z,9.57
2024-03-13T10:39:47.874Z,9.55
2024-03-13T10:42:15.917Z,9.55
2024-03-13T10:44:44.534Z,9.55
2024-03-13T10:47:13.643Z,9.53
2024-03-13T10:49:42.219Z,9.51
2024-03-13T10:52:13.458Z,9.50
2024-03-13T10:54:42.302Z,9.47
2024-03-13T10:57:17.707Z,9.42
2024-03-13T10:59:49.585Z,9.40
2024-03-13T11:02:17.645Z,9.41
2024-03-13T11:04:46.594Z,9.41
2024-03-13T11:07:14.987Z,9.40
2024-03-13T11:09:42.793Z,9.37
2024-03-13T11:12:24.563Z,9.39
2024-03-13T11:14:55.008Z,9.44
2024-03-13T11:17:24.418Z,9.45
2024-03-13T11:20:09.336Z,9.43
2024-03-13T11:22:37.628Z,9.41
2024-03-13T11:25:07.625Z,9.40
2024-03-13T11:27:40.408Z,9.42
2024-03-13T11:30:10.132Z,9.43
2024-03-13T11:32:39.001Z,9.45
2024-03-13T11:35:07.249Z,9.44
2024-03-13T11:37:35.017Z,9.49
2024-03-13T11:40:02.917Z,9.56
2024-03-13T11:42:33.911Z,9.64
2024-03-13T11:45:20.266Z,9.69
2024-03-13T11:47:49.463Z,9.71
2024-03-13T11:50:17.629Z,9.68
2024-03-13T11:53:00.077Z,9.63
2024-03-13T11:55:31.491Z,9.58
2024-03-13T11:58:18.828Z,9.56
2024-03-13T12:00:48.080Z,9.53
2024-03-13T12:03:17.067Z,9.54
2024-03-13T12:05:47.263Z,9.60
2024-03-13T12:08:22.000Z,9.71
2024-03-13T12:10:50.356Z,9.79
2024-03-13T12:13:22.018Z,9.88
2024-03-13T12:15:49.867Z,9.97
2024-03-13T12:18:17.972Z,10.00
2024-03-13T12:20:47.247Z,10.01
2024-03-13T12:23:16.841Z,10.03
2024-03-13T12:25:44.928Z,10.05
2024-03-13T12:28:17.025Z,10.07
2024-03-13T12:30:51.329Z,10.14
2024-03-13T12:33:20.295Z,10.22
2024-03-13T12:35:57.075Z,10.33
2024-03-13T12:38:38.301Z,10.42
2024-03-13T12:41:08.940Z,10.50
2024-03-13T12:43:37.702Z,10.49
2024-03-13T12:46:05.923Z,10.50
2024-03-13T12:48:35.148Z,10.53
2024-03-13T12:51:03.583Z,10.58
2024-03-13T12:53:32.173Z,10.65
2024-03-13T12:56:01.181Z,10.70
2024-03-13T12:58:30.168Z,10.73
2024-03-13T13:01:03.082Z,10.77
2024-03-13T13:03:33.990Z,10.80
2024-03-13T13:06:03.525Z,10.85
2024-03-13T13:08:31.470Z,10.92
2024-03-13T13:10:59.358Z,10.97
2024-03-13T13:13:27.764Z,11.06
2024-03-13T13:15:57.442Z,11.13
2024-03-13T13:18:26.019Z,11.18
2024-03-13T13:20:53.954Z,11.16
2024-03-13T13:23:22.071Z,11.15
2024-03-13T13:25:49.780Z,11.15
2024-03-13T13:28:18.984Z,11.16
2024-03-13T13:30:47.946Z,11.17
2024-03-13T13:33:15.869Z,11.17
2024-03-13T13:35:44.599Z,11.18
2024-03-13T13:38:17.587Z,11.22
2024-03-13T13:40:45.784Z,11.28
2024-03-13T13:43:13.616Z,11.36
2024-03-13T13:45:41.804Z,11.42
2024-03-13T13:48:10.594Z,11.46
2024-03-13T13:50:38.859Z,11.47
2024-03-13T13:53:06.910Z,11.51
2024-03-13T13:55:34.811Z,11.51
2024-03-13T13:58:04.970Z,11.47
2024-03-13T14:00:33.179Z,11.40
2024-03-13T14:03:01.010Z,11.37
2024-03-13T14:05:32.276Z,11.38
2024-03-13T14:08:00.327Z,11.39
2024-03-13T14:10:28.603Z,11.42
2024-03-13T14:12:58.202Z,11.39
2024-03-13T14:15:26.470Z,11.38
2024-03-13T14:17:55.510Z,11.35
2024-03-13T14:20:24.406Z,11.38
2024-03-13T14:22:56.646Z,11.42
2024-03-13T14:25:28.369Z,11.44
2024-03-13T14:27:56.859Z,11.46
2024-03-13T14:30:25.160Z,11.44
2024-03-13T14:32:53.765Z,11.42
2024-03-13T14:35:22.981Z,11.40
2024-03-13T14:37:51.057Z,11.40
2024-03-13T14:40:21.904Z,11.41
2024-03-13T14:42:50.090Z,11.42
2024-03-13T14:45:19.526Z,11.41
2024-03-13T14:47:48.406Z,11.42
2024-03-13T14:50:21.213Z,11.43
2024-03-13T14:55:23.326Z,11.41
2024-03-13T14:57:51.155Z,11.37
2024-03-13T15:00:19.144Z,11.34
2024-03-13T15:02:48.031Z,11.32
2024-03-13T15:05:16.260Z,11.30
2024-03-13T15:07:43.948Z,11.30
2024-03-13T15:10:12.561Z,11.29
2024-03-13T15:12:41.983Z,11.28
2024-03-13T15:15:11.710Z,11.28
2024-03-13T15:17:43.660Z,11.27
2024-03-13T15:20:14.848Z,11.30
2024-03-13T15:22:44.340Z,11.32
2024-03-13T15:25:12.619Z,11.33
2024-03-13T15:27:40.258Z,11.36
2024-03-13T15:30:10.283Z,11.40
2024-03-13T15:32:39.298Z,11.43
2024-03-13T15:35:07.486Z,11.46
2024-03-13T15:37:35.629Z,11.51
2024-03-13T15:40:11.966Z,11.55
2024-03-13T15:42:41.610Z,11.56
2024-03-13T15:45:12.290Z,11.54
2024-03-13T15:47:44.216Z,11.51
2024-03-13T15:50:24.153Z,11.48
2024-03-13T15:52:57.558Z,11.46
2024-03-13T15:55:25.590Z,11.43
2024-03-13T15:57:53.631Z,11.38
2024-03-13T16:00:25.853Z,11.33
2024-03-13T16:02:56.920Z,11.28
2024-03-13T16:05:27.948Z,11.24
2024-03-13T16:08:05.906Z,11.19
2024-03-13T16:10:33.876Z,11.12
2024-03-13T16:13:01.569Z,11.04
2024-03-13T16:15:29.502Z,10.93
2024-03-13T16:17:59.475Z,10.84
2024-03-13T16:20:27.744Z,10.74
2024-03-13T16:22:58.460Z,10.59
2024-03-13T16:25:26.861Z,10.49
2024-03-13T16:27:54.792Z,10.37
2024-03-13T16:30:24.596Z,10.25
2024-03-13T16:32:52.652Z,10.16
2024-03-13T16:35:22.030Z,10.10
2024-03-13T16:37:49.849Z,10.02
2024-03-13T16:40:19.144Z,9.94
2024-03-13T16:42:47.622Z,9.88
2024-03-13T16:45:19.638Z,9.83
2024-03-13T16:47:48.299Z,9.81
2024-03-13T16:50:17.295Z,9.76
2024-03-13T16:52:45.952Z,9.70
2024-03-13T16:55:13.825Z,9.62
2024-03-13T16:57:43.476Z,9.56
2024-03-13T17:00:16.183Z,9.51
2024-03-13T17:02:45.582Z,9.44
2024-03-13T17:05:15.876Z,9.43
2024-03-13T17:07:44.779Z,9.40
2024-03-13T17:10:13.196Z,9.37
2024-03-13T17:12:41.107Z,9.34
2024-03-13T17:15:09.794Z,9.32
2024-03-13T17:17:37.639Z,9.28
2024-03-13T17:20:11.255Z,9.26
2024-03-13T17:22:39.181Z,9.24
2024-03-13T17:25:07.033Z,9.22
2024-03-13T17:27:38.044Z,9.21
2024-03-13T17:30:06.559Z,9.18
2024-03-13T17:32:34.489Z,9.17
2024-03-13T17:35:03.980Z,9.16
2024-03-13T17:37:32.481Z,9.15
2024-03-13T17:40:00.502Z,9.16
2024-03-13T17:42:28.816Z,9.17
2024-03-13T17:44:59.451Z,9.18
2024-03-13T17:47:27.149Z,9.15
2024-03-13T17:49:55.157Z,9.13
2024-03-13T17:52:22.904Z,9.12
2024-03-13T17:54:53.362Z,9.11
2024-03-13T17:57:21.548Z,9.08
2024-03-13T17:59:49.648Z,9.06
2024-03-13T18:02:19.818Z,9.03
2024-03-13T18:04:47.990Z,8.98
2024-03-13T18:07:16.348Z,8.93
2024-03-13T18:09:44.280Z,8.89
2024-03-13T18:12:12.398Z,8.86
2024-03-13T18:14:41.171Z,8.83
2024-03-13T18:17:10.183Z,8.78
2024-03-13T18:19:40.156Z,8.73
2024-03-13T18:22:08.885Z,8.70
2024-03-13T18:24:37.057Z,8.70
2024-03-13T18:27:05.315Z,8.69
2024-03-13T18:29:33.292Z,8.68
2024-03-13T18:32:01.381Z,8.66
2024-03-13T18:34:34.280Z,8.61
2024-03-13T18:37:03.623Z,8.56
2024-03-13T18:39:31.766Z,8.53
2024-03-13T18:41:59.628Z,8.51
2024-03-13T18:44:27.504Z,8.48
2024-03-13T18:46:56.156Z,8.48
2024-03-13T18:49:24.047Z,8.46
2024-03-13T18:51:52.524Z,8.41
2024-03-13T18:54:22.679Z,8.36
2024-03-13T18:56:51.736Z,8.32
2024-03-13T18:59:19.726Z,8.30
2024-03-13T19:01:48.065Z,8.29
2024-03-13T19:04:15.835Z,8.28
2024-03-13T19:06:45.225Z,8.27
2024-03-13T19:09:14.350Z,8.24
2024-03-13T19:11:42.992Z,8.22
2024-03-13T19:14:11.109Z,8.21
2024-03-13T19:16:42.363Z,8.19
2024-03-13T19:19:10.141Z,8.18
2024-03-13T19:21:40.690Z,8.18
2024-03-13T19:24:10.381Z,8.17
2024-03-13T19:26:38.257Z,8.16
2024-03-13T19:29:05.999Z,8.18
2024-03-13T19:31:39.107Z,8.16
2024-03-13T19:34:09.065Z,8.15
2024-03-13T19:36:37.725Z,8.12
2024-03-13T19:39:05.540Z,8.09
2024-03-13T19:41:33.522Z,8.06
2024-03-13T19:44:01.241Z,8.04
2024-03-13T19:46:29.621Z,8.03
2024-03-13T19:48:58.733Z,8.01
2024-03-13T19:51:27.091Z,8.01
2024-03-13T19:53:54.955Z,8.01
2024-03-13T19:56:22.856Z,8.01
2024-03-13T19:58:51.434Z,7.99
2024-03-13T20:01:20.061Z,7.99
2024-03-13T20:03:47.836Z,7.97
2024-03-13T20:06:16.112Z,7.96
2024-03-13T20:08:44.060Z,7.95
2024-03-13T20:11:13.469Z,7.93
2024-03-13T20:13:42.912Z,7.92
2024-03-13T20:16:13.400Z,7.89
2024-03-13T20:18:41.636Z,7.86
2024-03-13T20:21:09.500Z,7.85
2024-03-13T20:23:38.327Z,7.85
2024-03-13T20:26:06.160Z,7.84
2024-03-13T20:28:33.865Z,7.82
2024-03-13T20:31:05.189Z,7.81
2024-03-13T20:33:33.300Z,7.80
2024-03-13T20:36:01.453Z,7.78
2024-03-13T20:38:30.422Z,7.74
2024-03-13T20:40:59.304Z,7.68
2024-03-13T20:43:27.429Z,7.63
2024-03-13T20:45:55.397Z,7.62
2024-03-13T20:48:24.229Z,7.61
2024-03-13T20:50:52.712Z,7.60
2024-03-13T20:53:20.631Z,7.59
2024-03-13T20:55:49.561Z,7.57
2024-03-13T20:58:18.345Z,7.56
2024-03-13T21:00:46.228Z,7.54
2024-03-13T21:03:14.592Z,7.50
2024-03-13T21:05:43.031Z,7.46
2024-03-13T21:08:10.921Z,7.40
2024-03-13T21:10:41.039Z,7.33
2024-03-13T21:13:10.525Z,7.29
2024-03-13T21:15:46.026Z,7.24
2024-03-13T21:18:30.979Z,7.18
2024-03-13T21:20:58.992Z,7.12
2024-03-13T21:23:26.804Z,7.04
2024-03-13T21:25:54.459Z,6.97
2024-03-13T21:28:22.113Z,6.86
2024-03-13T21:30:49.774Z,6.73
2024-03-13T21:33:18.680Z,6.63
2024-03-13T21:35:46.930Z,6.60
2024-03-13T21:38:14.667Z,6.56
2024-03-13T21:40:42.378Z,6.51
2024-03-13T21:43:10.113Z,6.52
2024-03-13T21:45:37.785Z,6.50
2024-03-13T21:48:08.780Z,6.48
2024-03-13T21:50:39.911Z,6.47
2024-03-13T21:53:11.476Z,6.46
2024-03-13T21:55:39.276Z,6.46
2024-03-13T21:58:07.150Z,6.47
2024-03-13T22:00:35.010Z,6.47
2024-03-13T22:03:03.139Z,6.48
2024-03-13T22:05:31.539Z,6.47
2024-03-13T22:08:00.419Z,6.49
2024-03-13T22:10:28.327Z,6.50
2024-03-13T22:12:56.732Z,6.50
2024-03-13T22:15:24.455Z,6.48
2024-03-13T22:17:52.470Z,6.46
2024-03-13T22:20:20.352Z,6.43
2024-03-13T22:22:48.658Z,6.38
2024-03-13T22:25:16.649Z,6.34
2024-03-13T22:27:45.725Z,6.33
2024-03-13T22:30:13.576Z,6.31
2024-03-13T22:32:42.120Z,6.32
2024-03-13T22:35:10.038Z,6.31
2024-03-13T22:37:37.792Z,6.27
2024-03-13T22:40:08.341Z,6.24
2024-03-13T22:42:36.257Z,6.22
2024-03-13T22:45:05.385Z,6.21
2024-03-13T22:47:33.136Z,6.21
2024-03-13T22:50:01.014Z,6.22
2024-03-13T22:52:28.904Z,6.21
2024-03-13T22:54:56.764Z,6.20
2024-03-13T22:57:24.665Z,6.20
2024-03-13T22:59:52.924Z,6.19
2024-03-13T23:02:21.328Z,6.19
2024-03-13T23:04:49.026Z,6.19
2024-03-13T23:07:17.805Z,6.19
2024-03-13T23:09:45.867Z,6.18
2024-03-13T23:12:13.716Z,6.18
2024-03-13T23:14:41.500Z,6.18
2024-03-13T23:17:11.337Z,6.20
2024-03-13T23:19:39.274Z,6.21
2024-03-13T23:22:08.159Z,6.21
2024-03-13T23:24:36.188Z,6.22
2024-03-13T23:27:04.200Z,6.23
2024-03-13T23:29:31.965Z,6.24
2024-03-13T23:32:02.416Z,6.27
2024-03-13T23:34:33.134Z,6.30
2024-03-13T23:37:01.569Z,6.32
2024-03-13T23:39:29.889Z,6.33
2024-03-13T23:41:58.036Z,6.33
2024-03-13T23:44:26.709Z,6.33
2024-03-13T23:46:54.391Z,6.32
2024-03-13T23:49:23.808Z,6.31
2024-03-13T23:51:51.673Z,6.30
2024-03-13T23:54:19.410Z,6.29
2024-03-13T23:56:47.158Z,6.29
2024-03-13T23:59:14.970Z,6.29
